createdAt,value
2018-09-08T00:00:30.252Z,7.40
2018-09-08T00:02:59.259Z,6.87
2018-09-08T00:05:33.992Z,7.78
2018-09-08T00:08:02.777Z,7.47
2018-09-08T00:19:28.363Z,7.08
2018-09-08T00:22:08.095Z,7.28
2018-09-08T00:24:41.043Z,6.83
2018-09-08T00:27:07.851Z,7.37
2018-09-08T00:32:27.967Z,7.05
2018-09-08T00:35:03.811Z,6.60
2018-09-08T00:37:32.171Z,6.42
2018-09-08T00:39:59.490Z,6.53
2018-09-08T00:42:26.792Z,6.42
2018-09-08T00:44:55.740Z,6.83
2018-09-08T00:47:23.139Z,6.70
2018-09-08T00:49:50.760Z,6.85
2018-09-08T00:52:18.051Z,6.93
2018-09-08T00:54:45.340Z,6.87
2018-09-08T00:57:31.675Z,6.72
2018-09-08T00:59:59.064Z,7.10
2018-09-08T01:02:28.309Z,7.37
2018-09-08T01:05:02.367Z,7.47
2018-09-08T01:10:10.022Z,6.90
2018-09-08T01:12:37.416Z,7.10
2018-09-08T01:15:05.479Z,7.25
2018-09-08T01:17:32.888Z,6.70
2018-09-08T01:20:04.620Z,6.65
2018-09-08T01:22:31.919Z,7.15
2018-09-08T01:28:10.423Z,6.70
2018-09-08T01:31:05.527Z,7.17
2018-09-08T01:33:32.871Z,7.12
2018-09-08T01:36:00.163Z,7.25
2018-09-08T01:38:27.518Z,7.25
2018-09-08T01:40:54.822Z,6.97
2018-09-08T01:43:22.288Z,6.17
2018-09-08T01:45:51.683Z,6.33
2018-09-08T01:48:18.960Z,6.50
2018-09-08T01:50:46.431Z,6.65
2018-09-08T01:53:14.664Z,6.85
2018-09-08T01:56:04.797Z,6.40
2018-09-08T01:58:32.130Z,5.90
2018-09-08T02:01:01.153Z,6.47
2018-09-08T02:03:28.435Z,6.40
2018-09-08T02:05:55.767Z,5.85
2018-09-08T02:08:23.478Z,6.30
2018-09-08T02:10:50.908Z,6.08
2018-09-08T02:13:31.965Z,5.55
2018-09-08T02:15:59.319Z,5.87
2018-09-08T02:18:27.356Z,6.10
2018-09-08T02:20:54.775Z,5.42
2018-09-08T02:23:22.932Z,5.47
2018-09-08T02:25:50.370Z,5.65
2018-09-08T02:28:19.353Z,5.42
2018-09-08T02:30:46.768Z,5.75
2018-09-08T02:33:16.071Z,5.28
2018-09-08T02:36:36.020Z,5.35
2018-09-08T02:39:05.128Z,5.28
2018-09-08T02:42:32.315Z,5.58
2018-09-08T02:45:03.356Z,5.17
2018-09-08T02:47:30.808Z,5.37
2018-09-08T02:50:09.705Z,5.53
2018-09-08T02:52:36.116Z,5.00
2018-09-08T02:55:02.679Z,5.30
2018-09-08T03:01:06.179Z,5.30
2018-09-08T03:06:20.827Z,4.90
2018-09-08T03:08:47.154Z,5.40
2018-09-08T03:11:32.295Z,5.25
2018-09-08T03:13:58.654Z,5.20
2018-09-08T03:16:25.030Z,4.62
2018-09-08T03:18:51.374Z,5.30
2018-09-08T03:21:17.704Z,4.92
2018-09-08T03:27:00.904Z,4.70
2018-09-08T03:29:27.382Z,5.20
2018-09-08T03:31:53.824Z,5.83
2018-09-08T03:34:20.402Z,6.08
2018-09-08T03:37:01.326Z,6.12
2018-09-08T03:39:27.651Z,6.37
2018-09-08T03:41:53.986Z,6.40
2018-09-08T03:44:20.428Z,6.12
2018-09-08T03:47:01.171Z,6.85
2018-09-08T03:49:27.519Z,6.05
2018-09-08T03:51:53.863Z,6.55
2018-09-08T03:54:20.182Z,6.60
2018-09-08T03:56:46.658Z,5.97
2018-09-08T03:59:13.343Z,6.50
2018-09-08T04:01:39.959Z,7.20
2018-09-08T04:04:07.829Z,6.37
2018-09-08T04:06:35.179Z,6.50
2018-09-08T04:09:03.299Z,6.85
2018-09-08T04:11:33.879Z,6.83
2018-09-08T04:14:03.150Z,6.25
2018-09-08T04:16:32.924Z,6.30
2018-09-08T04:19:03.367Z,6.00
2018-09-08T04:21:33.971Z,5.90
2018-09-08T04:24:01.716Z,6.10
2018-09-08T04:26:29.526Z,6.17
2018-09-08T04:28:56.876Z,6.60
2018-09-08T04:31:24.741Z,6.30
2018-09-08T04:33:52.064Z,6.40
2018-09-08T04:36:19.343Z,7.12
2018-09-08T04:38:46.612Z,7.22
2018-09-08T04:41:14.437Z,7.35
2018-09-08T04:43:41.771Z,6.95
2018-09-08T04:46:09.051Z,7.15
2018-09-08T04:48:36.351Z,6.85
2018-09-08T04:51:16.314Z,7.05
2018-09-08T04:53:43.829Z,6.85
2018-09-08T04:56:32.208Z,6.50
2018-09-08T04:59:00.306Z,7.05
2018-09-08T05:01:27.619Z,6.67
2018-09-08T05:06:52.090Z,6.95
2018-09-08T05:09:24.804Z,6.70
2018-09-08T05:11:52.211Z,6.67
2018-09-08T05:14:19.678Z,6.30
2018-09-08T05:17:01.669Z,6.70
2018-09-08T05:19:32.962Z,5.90
2018-09-08T05:22:00.290Z,6.47
2018-09-08T05:24:33.718Z,6.17
2018-09-08T05:27:20.289Z,6.10
2018-09-08T05:30:02.287Z,6.17
2018-09-08T05:32:35.922Z,6.67
2018-09-08T05:35:05.735Z,6.28
2018-09-08T05:37:33.145Z,6.20
2018-09-08T05:40:05.121Z,5.97
2018-09-08T05:42:32.878Z,6.22
2018-09-08T05:45:00.297Z,6.25
2018-09-08T05:47:27.579Z,6.30
2018-09-08T05:49:55.179Z,6.37
2018-09-08T05:52:22.567Z,6.15
2018-09-08T05:54:49.923Z,6.00
2018-09-08T05:57:18.905Z,5.80
2018-09-08T05:59:46.224Z,5.62
2018-09-08T06:02:19.450Z,5.90
2018-09-08T06:04:47.743Z,5.78
2018-09-08T06:07:17.747Z,5.58
2018-09-08T06:09:45.626Z,5.83
2018-09-08T06:12:13.033Z,5.67
2018-09-08T06:14:41.676Z,5.95
2018-09-08T06:17:09.008Z,6.42
2018-09-08T06:19:40.142Z,6.58
2018-09-08T06:22:09.826Z,6.33
2018-09-08T06:24:37.197Z,6.28
2018-09-08T06:27:05.355Z,6.12
2018-09-08T06:29:32.795Z,5.78
2018-09-08T06:32:02.140Z,6.35
2018-09-08T06:34:31.087Z,5.65
2018-09-08T06:36:59.414Z,5.90
2018-09-08T06:39:26.849Z,6.45
2018-09-08T06:41:54.174Z,6.47
2018-09-08T06:44:21.478Z,6.42
2018-09-08T06:46:48.944Z,6.22
2018-09-08T06:49:17.051Z,6.58
2018-09-08T06:51:44.427Z,5.90
2018-09-08T06:54:14.299Z,6.55
2018-09-08T06:56:42.435Z,6.70
2018-09-08T06:59:09.762Z,6.97
2018-09-08T07:01:37.143Z,7.47
2018-09-08T07:04:06.270Z,7.17
2018-09-08T07:06:33.679Z,7.05
2018-09-08T07:09:02.517Z,7.53
2018-09-08T07:11:29.959Z,7.50
2018-09-08T07:13:58.275Z,7.20
2018-09-08T07:16:25.651Z,8.00
2018-09-08T07:18:52.926Z,7.72
2018-09-08T07:21:22.077Z,7.50
2018-09-08T07:23:50.161Z,7.72
2018-09-08T07:26:22.328Z,7.28
2018-09-08T07:28:49.950Z,7.60
2018-09-08T07:31:17.248Z,7.87
2018-09-08T07:33:44.593Z,7.90
2018-09-08T07:36:11.859Z,7.25
2018-09-08T07:38:39.146Z,7.80
2018-09-08T07:43:57.891Z,8.00
2018-09-08T07:46:25.155Z,7.97
2018-09-08T07:48:52.507Z,7.12
2018-09-08T07:51:20.280Z,7.28
2018-09-08T07:53:47.616Z,6.80
2018-09-08T07:56:14.903Z,6.53
2018-09-08T07:58:42.194Z,6.53
2018-09-08T08:01:09.413Z,6.62
2018-09-08T08:03:41.693Z,6.22
2018-09-08T08:06:08.997Z,6.35
2018-09-08T08:08:36.203Z,5.35
2018-09-08T08:11:03.519Z,5.25
2018-09-08T08:13:30.803Z,5.72
2018-09-08T08:15:58.027Z,5.60
2018-09-08T08:18:25.256Z,5.62
2018-09-08T08:20:52.510Z,5.33
2018-09-08T08:23:19.773Z,5.53
2018-09-08T08:26:03.375Z,5.20
2018-09-08T08:28:32.643Z,4.92
2018-09-08T08:30:59.996Z,5.87
2018-09-08T08:33:32.908Z,4.20
2018-09-08T08:36:02.910Z,4.12
2018-09-08T08:38:30.576Z,3.80
2018-09-08T08:40:57.894Z,3.45
2018-09-08T08:43:25.235Z,4.12
2018-09-08T08:45:52.427Z,3.95
2018-09-08T08:48:22.412Z,3.70
2018-09-08T08:51:01.475Z,3.65
2018-09-08T08:53:40.411Z,3.75
2018-09-08T08:56:08.216Z,3.20
2018-09-08T08:58:35.477Z,3.40
2018-09-08T09:01:02.756Z,3.10
2018-09-08T09:03:30.670Z,2.90
2018-09-08T09:05:58.268Z,3.35
2018-09-08T09:08:26.625Z,3.27
2018-09-08T09:10:55.529Z,2.60
2018-09-08T09:13:23.222Z,3.42
2018-09-08T09:16:04.971Z,3.17
2018-09-08T09:18:44.239Z,3.45
2018-09-08T09:21:23.164Z,3.80
2018-09-08T09:24:59.373Z,3.62
2018-09-08T09:27:33.813Z,3.40
2018-09-08T09:30:01.601Z,3.85
2018-09-08T09:32:28.968Z,3.40
2018-09-08T09:34:56.258Z,3.33
2018-09-08T09:37:23.679Z,3.12
2018-09-08T09:39:51.811Z,3.72
2018-09-08T09:42:19.104Z,3.42
2018-09-08T09:44:46.408Z,21.30
2018-09-08T09:47:14.577Z,2.85
2018-09-08T09:49:41.974Z,2.65
2018-09-08T09:52:09.432Z,3.20
2018-09-08T09:54:36.731Z,3.27
2018-09-08T09:57:04.314Z,3.02
2018-09-08T09:59:31.748Z,2.90
2018-09-08T10:02:07.815Z,3.12
2018-09-08T10:04:35.229Z,2.90
2018-09-08T10:07:07.779Z,2.90
2018-09-08T10:09:36.322Z,2.90
2018-09-08T10:12:03.646Z,3.10
2018-09-08T10:14:30.978Z,3.10
2018-09-08T10:16:58.259Z,2.58
2018-09-08T10:19:25.560Z,2.77
2018-09-08T10:21:52.976Z,2.80
2018-09-08T10:24:20.223Z,2.20
2018-09-08T10:26:47.475Z,2.30
2018-09-08T10:29:14.698Z,2.35
2018-09-08T10:31:41.934Z,2.20
2018-09-08T10:34:09.199Z,1.80
2018-09-08T10:36:36.419Z,2.27
2018-09-08T10:39:05.509Z,2.00
2018-09-08T10:41:32.755Z,2.20
2018-09-08T10:44:00.032Z,2.55
2018-09-08T10:46:27.475Z,2.22
2018-09-08T10:48:54.761Z,2.45
2018-09-08T10:53:39.734Z,2.35
2018-09-08T10:56:07.072Z,1.92
2018-09-08T10:58:34.839Z,2.42
2018-09-08T11:01:02.259Z,2.08
2018-09-08T11:03:29.691Z,2.12
2018-09-08T11:05:58.148Z,1.82
2018-09-08T11:08:25.499Z,1.50
2018-09-08T11:10:53.087Z,1.70
2018-09-08T11:13:20.591Z,1.87
2018-09-08T11:15:48.014Z,1.65
2018-09-08T11:18:15.277Z,1.70
2018-09-08T11:20:42.710Z,1.62
2018-09-08T11:23:09.966Z,2.00
2018-09-08T11:25:37.332Z,1.70
2018-09-08T11:28:05.080Z,1.77
2018-09-08T11:30:32.506Z,1.70
2018-09-08T11:32:59.763Z,1.80
2018-09-08T11:35:27.083Z,1.77
2018-09-08T11:37:54.361Z,1.62
2018-09-08T11:40:21.881Z,1.57
2018-09-08T11:42:49.213Z,1.60
2018-09-08T11:45:16.593Z,1.60
2018-09-08T11:47:43.883Z,1.70
2018-09-08T11:50:11.175Z,1.70
2018-09-08T11:52:38.418Z,1.47
2018-09-08T11:55:05.715Z,1.40
2018-09-08T11:57:33.139Z,1.57
2018-09-08T12:00:00.394Z,1.47
2018-09-08T12:02:27.674Z,1.37
2018-09-08T12:04:54.912Z,1.47
2018-09-08T12:07:22.171Z,1.35
2018-09-08T12:09:49.420Z,1.40
2018-09-08T12:12:16.694Z,1.37
2018-09-08T12:14:44.018Z,1.52
2018-09-08T12:17:11.322Z,1.10
2018-09-08T12:19:38.593Z,1.40
2018-09-08T12:22:05.935Z,1.27
2018-09-08T12:27:14.609Z,1.40
2018-09-08T12:32:27.855Z,1.70
2018-09-08T12:34:55.086Z,1.57
2018-09-08T12:37:22.414Z,1.47
2018-09-08T12:39:49.686Z,1.50
2018-09-08T12:42:16.943Z,1.40
2018-09-08T12:44:44.194Z,1.50
2018-09-08T12:47:11.483Z,1.12
2018-09-08T12:49:38.794Z,1.20
2018-09-08T12:52:06.319Z,1.30
2018-09-08T12:54:33.655Z,1.50
2018-09-08T12:57:01.038Z,1.50
2018-09-08T12:59:28.357Z,1.40
2018-09-08T13:01:55.674Z,1.20
2018-09-08T13:04:22.985Z,1.37
2018-09-08T13:06:50.215Z,1.50
2018-09-08T13:09:24.027Z,1.30
2018-09-08T13:11:51.307Z,1.40
2018-09-08T13:14:20.494Z,1.50
2018-09-08T13:16:48.091Z,1.30
2018-09-08T13:19:15.352Z,1.30
2018-09-08T13:21:42.628Z,1.20
2018-09-08T13:24:25.247Z,1.30
2018-09-08T13:26:52.550Z,1.40
2018-09-08T13:29:19.803Z,1.12
2018-09-08T13:31:47.597Z,1.20
2018-09-08T13:34:14.854Z,1.20
2018-09-08T13:36:42.152Z,1.42
2018-09-08T13:39:19.785Z,1.40
2018-09-08T13:41:53.703Z,1.37
2018-09-08T13:44:21.003Z,1.30
2018-09-08T13:46:48.255Z,1.50
2018-09-08T13:49:15.510Z,1.40
2018-09-08T13:51:42.787Z,1.40
2018-09-08T13:54:10.035Z,1.42
2018-09-08T13:56:37.270Z,1.40
2018-09-08T13:59:04.536Z,1.40
2018-09-08T14:01:31.776Z,1.30
2018-09-08T14:03:59.067Z,1.30
2018-09-08T14:06:26.394Z,1.30
2018-09-08T14:09:03.316Z,1.45
2018-09-08T14:11:30.648Z,1.50
2018-09-08T14:13:57.891Z,1.50
2018-09-08T14:16:25.115Z,1.42
2018-09-08T14:18:52.726Z,1.50
2018-09-08T14:21:20.000Z,1.60
2018-09-08T14:23:47.244Z,1.62
2018-09-08T14:26:14.491Z,1.80
2018-09-08T14:28:42.463Z,1.70
2018-09-08T14:31:09.650Z,1.47
2018-09-08T14:33:36.890Z,1.50
2018-09-08T14:36:04.142Z,1.60
2018-09-08T14:38:31.429Z,1.40
2018-09-08T14:40:58.664Z,1.50
2018-09-08T14:43:25.958Z,1.55
2018-09-08T14:45:53.228Z,1.70
2018-09-08T14:48:20.499Z,1.52
2018-09-08T14:50:47.771Z,1.65
2018-09-08T14:53:15.040Z,1.60
2018-09-08T14:55:42.327Z,1.87
2018-09-08T15:01:00.742Z,1.80
2018-09-08T15:03:31.902Z,1.60
2018-09-08T15:05:59.250Z,1.80
2018-09-08T15:08:26.647Z,1.60
2018-09-08T15:10:53.907Z,1.90
2018-09-08T15:13:21.195Z,2.05
2018-09-08T15:15:48.422Z,1.62
2018-09-08T15:18:17.166Z,1.77
2018-09-08T15:20:44.407Z,1.70
2018-09-08T15:23:11.671Z,1.70
2018-09-08T15:25:38.907Z,1.80
2018-09-08T15:28:06.143Z,1.82
2018-09-08T15:30:33.933Z,1.87
2018-09-08T15:33:01.267Z,1.85
2018-09-08T15:35:28.491Z,2.00
2018-09-08T15:37:56.351Z,2.00
2018-09-08T15:40:23.607Z,1.87
2018-09-08T15:42:50.830Z,1.80
2018-09-08T15:45:18.107Z,1.92
2018-09-08T15:47:45.835Z,1.77
2018-09-08T15:50:13.100Z,1.82
2018-09-08T15:52:40.441Z,1.82
2018-09-08T15:55:07.742Z,1.75
2018-09-08T15:57:35.291Z,1.98
2018-09-08T16:02:46.704Z,6.60
2018-09-08T16:05:14.048Z,1.80
2018-09-08T16:07:42.295Z,1.50
2018-09-08T16:10:09.486Z,1.60
2018-09-08T16:12:36.705Z,1.90
2018-09-08T16:15:04.018Z,1.70
2018-09-08T16:17:31.569Z,1.85
2018-09-08T16:19:58.822Z,1.90
2018-09-08T16:22:26.053Z,1.80
2018-09-08T16:24:55.723Z,1.87
2018-09-08T16:27:25.667Z,1.70
2018-09-08T16:29:56.102Z,2.00
2018-09-08T16:32:23.432Z,1.80
2018-09-08T16:34:50.719Z,2.00
2018-09-08T16:37:17.958Z,1.80
2018-09-08T16:39:45.170Z,2.10
2018-09-08T16:42:12.402Z,2.20
2018-09-08T16:44:39.629Z,2.20
2018-09-08T16:47:06.858Z,2.30
2018-09-08T16:49:34.089Z,2.08
2018-09-08T16:52:01.389Z,2.42
2018-09-08T16:54:42.103Z,2.10
2018-09-08T16:57:09.523Z,3.00
2018-09-08T16:59:36.787Z,2.30
2018-09-08T17:02:04.038Z,2.12
2018-09-08T17:04:31.267Z,2.05
2018-09-08T17:06:58.535Z,2.10
2018-09-08T17:09:25.721Z,2.40
2018-09-08T17:11:52.963Z,2.27
2018-09-08T17:14:20.252Z,2.20
2018-09-08T17:16:47.438Z,2.15
2018-09-08T17:19:14.679Z,2.02
2018-09-08T17:21:41.925Z,2.05
2018-09-08T17:24:09.147Z,2.10
2018-09-08T17:26:36.474Z,2.20
2018-09-08T17:29:03.757Z,2.20
2018-09-08T17:31:31.108Z,1.80
2018-09-08T17:33:58.482Z,2.10
2018-09-08T17:36:26.303Z,2.02
2018-09-08T17:38:53.640Z,2.20
2018-09-08T17:41:21.787Z,2.00
2018-09-08T17:43:49.160Z,2.15
2018-09-08T17:46:16.406Z,2.20
2018-09-08T17:48:43.755Z,2.22
2018-09-08T17:51:11.002Z,2.10
2018-09-08T17:53:38.253Z,2.50
2018-09-08T17:56:05.526Z,2.98
2018-09-08T17:58:32.812Z,2.98
2018-09-08T18:01:00.044Z,3.20
2018-09-08T18:03:34.055Z,3.67
2018-09-08T18:06:01.267Z,2.98
2018-09-08T18:08:28.489Z,4.12
2018-09-08T18:10:55.886Z,2.77
2018-09-08T18:13:24.124Z,3.37
2018-09-08T18:15:51.470Z,7.67
2018-09-08T18:18:18.851Z,5.20
2018-09-08T18:20:46.153Z,3.40
2018-09-08T18:23:13.531Z,4.45
2018-09-08T18:25:40.751Z,3.98
2018-09-08T18:28:08.073Z,3.40
2018-09-08T18:30:35.330Z,9.58
2018-09-08T18:33:03.048Z,4.55
2018-09-08T18:35:30.603Z,4.85
2018-09-08T18:37:58.219Z,6.03
2018-09-08T18:40:25.571Z,6.75
2018-09-08T18:42:53.066Z,4.83
2018-09-08T18:45:20.974Z,3.50
2018-09-08T18:47:48.358Z,3.02
2018-09-08T18:50:16.871Z,3.35
2018-09-08T18:55:25.319Z,4.78
2018-09-08T18:57:53.007Z,5.58
2018-09-08T19:00:20.295Z,6.22
2018-09-08T19:02:47.631Z,5.00
2018-09-08T19:05:15.162Z,2.90
2018-09-08T19:07:42.768Z,3.02
2018-09-08T19:10:10.064Z,3.08
2018-09-08T19:12:37.389Z,3.30
2018-09-08T19:15:10.473Z,3.37
2018-09-08T19:17:37.791Z,3.40
2018-09-08T19:20:10.687Z,3.52
2018-09-08T19:22:56.320Z,3.80
2018-09-08T19:25:23.635Z,4.30
2018-09-08T19:27:50.935Z,3.40
2018-09-08T19:30:18.517Z,3.90
2018-09-08T19:32:46.064Z,3.65
2018-09-08T19:35:19.296Z,3.77
2018-09-08T19:37:46.700Z,3.75
2018-09-08T19:43:02.004Z,7.28
2018-09-08T19:45:29.753Z,5.35
2018-09-08T19:48:03.739Z,5.05
2018-09-08T19:50:31.877Z,4.95
2018-09-08T19:53:08.369Z,5.00
2018-09-08T19:55:35.860Z,4.83
2018-09-08T19:58:09.119Z,4.37
2018-09-08T20:00:36.615Z,4.65
2018-09-08T20:03:03.877Z,4.42
2018-09-08T20:05:31.175Z,6.42
2018-09-08T20:08:00.451Z,6.25
2018-09-08T20:10:28.135Z,5.20
2018-09-08T20:13:03.536Z,4.80
2018-09-08T20:15:32.697Z,5.03
2018-09-08T20:18:01.254Z,4.90
2018-09-08T20:20:30.888Z,4.50
2018-09-08T20:22:58.468Z,4.12
2018-09-08T20:25:33.779Z,4.60
2018-09-08T20:28:01.769Z,4.45
2018-09-08T20:30:30.814Z,3.95
2018-09-08T20:32:58.455Z,3.87
2018-09-08T20:35:30.865Z,4.00
2018-09-08T20:37:58.299Z,3.87
2018-09-08T20:40:25.645Z,3.30
2018-09-08T20:43:02.851Z,3.60
2018-09-08T20:45:34.798Z,4.00
2018-09-08T20:48:03.553Z,4.25
2018-09-08T20:50:34.460Z,4.30
2018-09-08T20:53:01.868Z,4.37
2018-09-08T20:55:30.816Z,4.10
2018-09-08T20:58:02.087Z,4.72
2018-09-08T21:00:32.888Z,4.55
2018-09-08T21:05:47.289Z,4.42
2018-09-08T21:08:14.591Z,4.22
2018-09-08T21:10:41.940Z,4.50
2018-09-08T21:13:09.704Z,4.33
2018-09-08T21:15:37.047Z,4.20
2018-09-08T21:18:06.816Z,4.45
2018-09-08T21:20:34.436Z,4.22
2018-09-08T21:23:02.921Z,3.90
2018-09-08T21:25:33.694Z,4.15
2018-09-08T21:28:05.020Z,4.37
2018-09-08T21:30:35.388Z,4.37
2018-09-08T21:33:02.909Z,4.47
2018-09-08T21:35:31.719Z,4.37
2018-09-08T21:38:05.709Z,4.33
2018-09-08T21:40:33.046Z,4.15
2018-09-08T21:43:06.664Z,4.22
2018-09-08T21:45:36.544Z,3.98
2018-09-08T21:48:09.820Z,4.17
2018-09-08T21:50:38.855Z,4.40
2018-09-08T22:18:11.064Z,5.83
2018-09-08T22:20:40.348Z,4.92
2018-09-08T22:23:08.559Z,4.90
2018-09-08T22:25:35.889Z,4.65
2018-09-08T22:28:04.597Z,4.62
2018-09-08T22:30:34.803Z,5.08
2018-09-08T22:33:03.205Z,4.50
2018-09-08T22:35:33.771Z,4.50
2018-09-08T22:38:01.836Z,4.80
2018-09-08T22:40:29.448Z,4.93
2018-09-08T22:42:56.813Z,4.97
2018-09-08T22:45:24.160Z,5.00
2018-09-08T22:47:51.451Z,4.97
2018-09-08T22:50:18.732Z,4.80
2018-09-08T22:52:46.003Z,5.00
2018-09-08T22:55:13.416Z,5.15
2018-09-08T22:57:40.730Z,4.80
2018-09-08T23:00:08.167Z,5.33
2018-09-08T23:02:35.399Z,4.90
2018-09-08T23:05:02.672Z,5.30
2018-09-08T23:07:29.992Z,5.25
2018-09-08T23:09:57.298Z,5.60
2018-09-08T23:12:24.606Z,5.72
2018-09-08T23:14:51.824Z,4.90
2018-09-08T23:17:19.119Z,5.25
2018-09-08T23:19:46.470Z,4.80
2018-09-08T23:22:13.750Z,4.92
2018-09-08T23:24:40.999Z,4.70
2018-09-08T23:27:08.591Z,4.83
2018-09-08T23:29:35.999Z,5.57
2018-09-08T23:32:03.215Z,4.78
2018-09-08T23:34:30.762Z,5.30
2018-09-08T23:36:58.051Z,5.30
2018-09-08T23:39:25.455Z,4.87
2018-09-08T23:41:52.728Z,5.03
2018-09-08T23:44:20.002Z,4.93
2018-09-08T23:46:47.271Z,5.20
2018-09-08T23:49:14.579Z,5.50
2018-09-08T23:51:41.907Z,5.00
2018-09-08T23:54:09.233Z,5.33
2018-09-08T23:56:36.545Z,5.10
2018-09-08T23:59:04.144Z,5.37
